Time;durP1;ratioP1;P1;durP2;ratioP2;P2;SDS_P1;SDS_P2;PMS_P1;PMS_P2;Temp;Humidity;BMP_temperature;BMP_pressure;BME280_temperature;BME280_humidity;BME280_pressure;Samples;Min_cycle;Max_cycle;Signal;HPM_P1;HPM_P2
2023/10/17 00:02:32;;;;;;;59.90;7.97;;;;;;;;;;5053625;28;20060;-36
2023/10/17 00:05:23;;;;;;;34.38;5.53;;;;;;;;;;5049704;28;20037;-43
2023/10/17 00:08:05;;;;;;;29.70;4.72;;;;;;;;;;5054947;28;20056;-45
2023/10/17 00:10:44;;;;;;;19.90;4.05;;;;;;;;;;5044439;28;20061;-43
2023/10/17 00:13:38;;;;;;;12.23;4.22;;;;;;;;;;5056732;28;20024;-48
2023/10/17 00:16:05;;;;;;;14.30;4.22;;;;;;;;;;5043557;28;20029;-46
2023/10/17 00:18:33;;;;;;;17.73;4.07;;;;;;;;;;5059109;28;20082;-43
2023/10/17 00:21:10;;;;;;;29.75;5.20;;;;;;;;;;5063592;28;20029;-41
2023/10/17 00:23:42;;;;;;;14.15;4.80;;;;;;;;;;5071995;28;20025;-40
2023/10/17 00:26:09;;;;;;;12.88;4.05;;;;;;;;;;5043662;28;20103;-40
2023/10/17 00:28:36;;;;;;;6.78;3.67;;;;;;;;;;5055660;28;20022;-49
2023/10/17 00:31:04;;;;;;;7.93;3.60;;;;;;;;;;5043669;28;20214;-38
2023/10/17 00:33:37;;;;;;;5.93;3.15;;;;;;;;;;5055515;28;20021;-44
2023/10/17 00:36:11;;;;;;;22.60;5.13;;;;;;;;;;5043459;28;20032;-38
2023/10/17 00:38:43;;;;;;;20.35;4.38;;;;;;;;;;5054918;28;20026;-41
2023/10/17 00:41:23;;;;;;;54.53;5.90;;;;;;;;;;5043854;28;20029;-38
2023/10/17 00:43:53;;;;;;;160.48;14.38;;;;;;;;;;5054738;28;20191;-49
2023/10/17 00:46:21;;;;;;;131.38;12.20;;;;;;;;;;5043460;28;20217;-44
2023/10/17 00:48:50;;;;;;;82.95;9.95;;;;;;;;;;5054696;28;20036;-45
2023/10/17 00:51:21;;;;;;;97.05;10.38;;;;;;;;;;5047750;28;20024;-42
2023/10/17 00:53:48;;;;;;;62.50;7.88;;;;;;;;;;5047215;28;20328;-43
2023/10/17 00:56:14;;;;;;;34.47;5.97;;;;;;;;;;5047346;28;20037;-49
2023/10/17 00:58:42;;;;;;;28.65;5.70;;;;;;;;;;5058028;28;20028;-51
2023/10/17 01:03:45;;;;;;;23.25;4.45;;;;;;;;;;5057500;28;20310;-57
2023/10/17 01:08:48;;;;;;;14.18;4.75;;;;;;;;;;5056895;28;20338;-51
2023/10/17 01:11:21;;;;;;;18.92;4.95;;;;;;;;;;5047416;28;20033;-39
2023/10/17 01:13:49;;;;;;;17.92;5.97;;;;;;;;;;5057116;28;20202;-37
2023/10/17 01:16:16;;;;;;;23.10;8.68;;;;;;;;;;5047143;28;20087;-41
2023/10/17 01:18:47;;;;;;;33.70;12.00;;;;;;;;;;5060721;28;20021;-48
2023/10/17 01:21:21;;;;;;;26.45;10.63;;;;;;;;;;5066855;28;20027;-38
2023/10/17 01:23:50;;;;;;;23.77;10.02;;;;;;;;;;5063147;28;20041;-48
2023/10/17 01:26:23;;;;;;;26.05;9.85;;;;;;;;;;5046944;28;20078;-44
2023/10/17 01:28:49;;;;;;;;;;;;;;;;;;5057116;28;20187;-38
2023/10/17 01:31:22;;;;;;;16.88;7.53;;;;;;;;;;5046838;28;20105;-40
2023/10/17 01:33:51;;;;;;;19.85;8.15;;;;;;;;;;5050906;28;20029;-48
2023/10/17 01:36:19;;;;;;;20.40;9.00;;;;;;;;;;5055704;28;20214;-38
2023/10/17 01:38:49;;;;;;;21.52;8.98;;;;;;;;;;5055824;28;20056;-45
2023/10/17 01:41:18;;;;;;;22.73;8.65;;;;;;;;;;5052752;28;20302;-45
2023/10/17 01:43:47;;;;;;;21.25;8.45;;;;;;;;;;5062181;28;20340;-41
2023/10/17 01:46:28;;;;;;;17.75;7.55;;;;;;;;;;5053466;28;20351;-37
2023/10/17 01:48:56;;;;;;;15.88;7.30;;;;;;;;;;5061795;28;20048;-39
2023/10/17 01:51:24;;;;;;;21.13;7.15;;;;;;;;;;5061964;28;20031;-44
2023/10/17 01:53:51;;;;;;;18.08;7.07;;;;;;;;;;5077569;28;20341;-43
2023/10/17 01:56:26;;;;;;;19.88;6.35;;;;;;;;;;5051569;28;20025;-40
2023/10/17 01:59:17;;;;;;;10.25;6.03;;;;;;;;;;5049311;28;20032;-43
2023/10/17 02:01:44;;;;;;;14.00;6.65;;;;;;;;;;5054692;28;20033;-44
2023/10/17 02:04:15;;;;;;;10.90;5.70;;;;;;;;;;5057701;28;20112;-50
2023/10/17 02:06:42;;;;;;;20.13;6.10;;;;;;;;;;5060441;28;20060;-40
2023/10/17 02:09:44;;;;;;;22.33;5.82;;;;;;;;;;5053072;28;20025;-42
2023/10/17 02:12:12;;;;;;;13.75;6.00;;;;;;;;;;5057214;28;20039;-48
2023/10/17 02:14:41;;;;;;;18.27;6.05;;;;;;;;;;5050827;28;20052;-49
2023/10/17 02:17:09;;;;;;;11.52;5.25;;;;;;;;;;5058397;28;20227;-48
2023/10/17 02:19:38;;;;;;;13.65;5.75;;;;;;;;;;5055808;28;20209;-47
2023/10/17 02:22:09;;;;;;;11.45;5.65;;;;;;;;;;5051431;28;20021;-41
2023/10/17 02:24:36;;;;;;;9.55;5.38;;;;;;;;;;5047197;28;20305;-48
2023/10/17 02:27:08;;;;;;;10.68;4.93;;;;;;;;;;5051124;28;20039;-43
2023/10/17 02:29:45;;;;;;;11.18;4.72;;;;;;;;;;5055948;28;20062;-40
2023/10/17 02:32:12;;;;;;;9.50;4.55;;;;;;;;;;5054763;28;20273;-50
2023/10/17 02:34:43;;;;;;;11.60;4.60;;;;;;;;;;5055488;28;20017;-42
2023/10/17 02:37:29;;;;;;;6.10;4.00;;;;;;;;;;5056439;28;20623;-41
2023/10/17 02:39:57;;;;;;;8.43;3.85;;;;;;;;;;5055004;28;20240;-41
2023/10/17 02:42:24;;;;;;;7.00;4.03;;;;;;;;;;5060046;28;20036;-45
2023/10/17 02:44:51;;;;;;;7.10;4.10;;;;;;;;;;5055476;28;20193;-47
2023/10/17 02:47:20;;;;;;;7.78;4.28;;;;;;;;;;5052078;28;20309;-43
2023/10/17 02:49:51;;;;;;;7.45;4.20;;;;;;;;;;5053938;28;20037;-42
2023/10/17 02:52:19;;;;;;;6.30;4.05;;;;;;;;;;5056957;28;20333;-43
2023/10/17 02:54:56;;;;;;;8.80;4.43;;;;;;;;;;5055209;28;20028;-49
2023/10/17 02:57:23;;;;;;;6.90;3.65;;;;;;;;;;5055810;28;20033;-45
2023/10/17 02:59:51;;;;;;;8.10;4.10;;;;;;;;;;5054666;28;20018;-43
2023/10/17 03:02:24;;;;;;;6.00;3.85;;;;;;;;;;5054180;28;20083;-43
2023/10/17 03:04:51;;;;;;;9.00;3.30;;;;;;;;;;5053702;28;20036;-49
2023/10/17 03:07:18;;;;;;;6.68;3.40;;;;;;;;;;5055940;28;20111;-47
2023/10/17 03:09:45;;;;;;;8.07;3.58;;;;;;;;;;5054569;28;20127;-40
2023/10/17 03:12:19;;;;;;;5.78;3.60;;;;;;;;;;5054954;28;20069;-48
2023/10/17 03:17:15;;;;;;;6.03;3.60;;;;;;;;;;5058282;28;20182;-50
2023/10/17 03:19:42;;;;;;;5.55;3.38;;;;;;;;;;5054468;28;20020;-47
2023/10/17 03:22:29;;;;;;;5.90;3.72;;;;;;;;;;5055224;28;20021;-41
2023/10/17 03:25:02;;;;;;;7.00;3.42;;;;;;;;;;5051689;28;20029;-41
2023/10/17 03:27:48;;;;;;;6.38;3.08;;;;;;;;;;5055450;28;20101;-46
2023/10/17 03:30:15;;;;;;;4.57;3.20;;;;;;;;;;5053931;28;20028;-40
2023/10/17 03:35:29;;;;;;;5.15;3.35;;;;;;;;;;5044327;28;20022;-51
2023/10/17 03:37:55;;;;;;;8.68;3.63;;;;;;;;;;5059261;28;20071;-51
2023/10/17 03:40:30;;;;;;;4.82;3.35;;;;;;;;;;5046720;28;20037;-48
2023/10/17 03:43:11;;;;;;;5.75;3.60;;;;;;;;;;5058284;28;20082;-42
2023/10/17 03:46:04;;;;;;;5.40;3.78;;;;;;;;;;5063799;28;20049;-41
2023/10/17 03:48:36;;;;;;;6.50;3.88;;;;;;;;;;5048544;28;20277;-47
2023/10/17 03:53:36;;;;;;;6.55;3.92;;;;;;;;;;5064376;28;20044;-49
2023/10/17 03:56:05;;;;;;;6.38;4.07;;;;;;;;;;5064048;28;20036;-44
2023/10/17 03:58:49;;;;;;;;;;;;;;;;;;5064713;28;20025;-51
2023/10/17 04:01:18;;;;;;;5.30;3.63;;;;;;;;;;5064003;28;19908;-41
2023/10/17 04:03:46;;;;;;;7.10;3.80;;;;;;;;;;5064076;28;20057;-43
2023/10/17 04:08:48;;;;;;;6.88;3.80;;;;;;;;;;5062184;28;20033;-41
2023/10/17 04:11:25;;;;;;;5.60;3.60;;;;;;;;;;5052893;28;20033;-42
2023/10/17 04:14:00;;;;;;;7.68;3.67;;;;;;;;;;5059296;28;20285;-52
2023/10/17 04:16:39;;;;;;;7.15;3.90;;;;;;;;;;5044414;28;20033;-52
2023/10/17 04:19:20;;;;;;;4.85;3.83;;;;;;;;;;5044202;28;20048;-39
2023/10/17 04:24:34;;;;;;;6.38;3.90;;;;;;;;;;5043326;28;20078;-49
2023/10/17 04:27:34;;;;;;;4.65;3.85;;;;;;;;;;5043691;28;20345;-41
2023/10/17 04:29:57;;;;;;;5.65;3.80;;;;;;;;;;5044942;28;20104;-49
2023/10/17 04:32:28;;;;;;;8.43;4.00;;;;;;;;;;5043792;28;20052;-43
2023/10/17 04:34:55;;;;;;;7.22;3.90;;;;;;;;;;5043980;28;20075;-42
2023/10/17 04:37:31;;;;;;;7.65;3.65;;;;;;;;;;5043702;28;20041;-42
2023/10/17 04:40:50;;;;;;;9.07;3.97;;;;;;;;;;5044174;28;20018;-46
2023/10/17 04:45:35;;;;;;;8.25;3.70;;;;;;;;;;5054326;28;20034;-44
2023/10/17 04:48:11;;;;;;;7.38;3.80;;;;;;;;;;5052427;28;20371;-51
2023/10/17 04:50:56;;;;;;;4.63;3.45;;;;;;;;;;5043525;28;20067;-41
2023/10/17 04:53:35;;;;;;;11.55;4.03;;;;;;;;;;5043675;28;20056;-42
2023/10/17 04:56:18;;;;;;;7.10;3.95;;;;;;;;;;5043431;28;20080;-47
2023/10/17 04:58:53;;;;;;;12.05;3.78;;;;;;;;;;5043656;28;20116;-43
2023/10/17 05:01:36;;;;;;;8.18;3.75;;;;;;;;;;5045325;28;20036;-46
2023/10/17 05:04:32;;;;;;;15.32;3.90;;;;;;;;;;5057281;28;20087;-39
2023/10/17 06:16:49;;;;;;;11.35;3.97;;;;;;;;;;5063737;28;20025;-41
2023/10/17 06:18:38;;;;;;;6.40;3.33;;;;;;;;;;5066161;28;20052;-48
2023/10/17 06:21:06;;;;;;;8.68;3.92;;;;;;;;;;5066193;28;20037;-50
2023/10/17 06:35:57;;;;;;;7.10;3.90;;;;;;;;;;5121681;27;20785;-51
2023/10/17 06:38:27;;;;;;;5.43;3.20;;;;;;;;;;5121893;28;20042;-41
2023/10/17 06:41:11;;;;;;;6.72;3.55;;;;;;;;;;5121546;28;20027;-44
2023/10/17 06:43:39;;;;;;;6.50;3.33;;;;;;;;;;5121607;28;20094;-44
2023/10/17 06:46:11;;;;;;;8.85;3.70;;;;;;;;;;5121515;28;20074;-46
2023/10/17 06:48:48;;;;;;;6.10;3.38;;;;;;;;;;5121561;28;20062;-52
2023/10/17 06:53:47;;;;;;;11.57;4.18;;;;;;;;;;5121395;28;20082;-47
2023/10/17 06:56:14;;;;;;;9.63;3.92;;;;;;;;;;5121371;28;20207;-43
2023/10/17 06:58:41;;;;;;;9.93;3.50;;;;;;;;;;5121515;28;20043;-44
2023/10/17 07:01:19;;;;;;;9.13;3.55;;;;;;;;;;5121043;28;20040;-42
2023/10/17 07:03:46;;;;;;;8.68;3.45;;;;;;;;;;5121214;28;20031;-42
2023/10/17 07:06:13;;;;;;;6.95;3.75;;;;;;;;;;5121054;28;20024;-40
2023/10/17 07:08:41;;;;;;;10.60;3.95;;;;;;;;;;5121233;28;20060;-45
2023/10/17 07:14:10;;;;;;;4.45;3.60;;;;;;;;;;5120717;28;20028;-42
2023/10/17 07:16:48;;;;;;;7.07;3.70;;;;;;;;;;5120836;28;20061;-46
2023/10/17 07:24:33;;;;;;;6.47;4.05;;;;;;;;;;5116149;28;20063;-46
2023/10/17 07:27:03;;;;;;;5.07;3.83;;;;;;;;;;5100255;28;20016;-43
2023/10/17 07:29:33;;;;;;;4.72;3.60;;;;;;;;;;5100146;28;20053;-42
2023/10/17 07:32:09;;;;;;;5.32;3.70;;;;;;;;;;5100155;28;20031;-47
2023/10/17 07:34:36;;;;;;;6.55;3.60;;;;;;;;;;5098547;28;20060;-45
2023/10/17 07:42:40;;;;;;;10.32;3.95;;;;;;;;;;5086628;28;20039;-39
2023/10/17 07:45:14;;;;;;;8.50;4.07;;;;;;;;;;5086798;28;20314;-40
2023/10/17 07:47:43;;;;;;;6.32;3.72;;;;;;;;;;5086356;28;20020;-40
2023/10/17 07:50:14;;;;;;;9.65;4.35;;;;;;;;;;5087020;28;20339;-43
2023/10/17 07:52:50;;;;;;;6.20;3.95;;;;;;;;;;5086182;28;20020;-47
2023/10/17 07:55:23;;;;;;;7.43;4.05;;;;;;;;;;5086207;28;20060;-44
2023/10/17 07:57:53;;;;;;;3.63;3.33;;;;;;;;;;5085962;28;20025;-49
2023/10/17 08:00:38;;;;;;;8.38;3.90;;;;;;;;;;5086256;28;20328;-60
2023/10/17 08:03:27;;;;;;;9.63;3.83;;;;;;;;;;5085848;28;20074;-40
2023/10/17 08:08:33;;;;;;;7.03;3.97;;;;;;;;;;5085960;28;20086;-49
2023/10/17 08:11:08;;;;;;;6.68;3.55;;;;;;;;;;5085997;28;20133;-40
2023/10/17 08:13:37;;;;;;;5.68;3.30;;;;;;;;;;5086165;28;20032;-40
2023/10/17 08:16:10;;;;;;;5.07;3.80;;;;;;;;;;5085924;28;20032;-52
2023/10/17 08:18:41;;;;;;;6.45;3.40;;;;;;;;;;5085977;28;20032;-49
2023/10/17 08:23:34;;;;;;;7.07;3.67;;;;;;;;;;5085800;28;20039;-41
2023/10/17 08:26:03;;;;;;;7.40;3.65;;;;;;;;;;5085565;28;20024;-44
2023/10/17 08:28:36;;;;;;;8.88;3.53;;;;;;;;;;5085645;28;20263;-42
2023/10/17 08:31:35;;;;;;;9.23;3.58;;;;;;;;;;5085691;28;20032;-43
2023/10/17 08:42:00;;;;;;;7.75;3.90;;;;;;;;;;5085306;28;20044;-43
2023/10/17 08:44:29;;;;;;;10.32;3.90;;;;;;;;;;5085472;28;20100;-40
2023/10/17 08:46:57;;;;;;;5.88;3.83;;;;;;;;;;5084260;28;20028;-47
2023/10/17 08:49:24;;;;;;;10.40;4.15;;;;;;;;;;5085408;28;20024;-41
2023/10/17 08:51:51;;;;;;;9.68;3.95;;;;;;;;;;5085129;28;20055;-43
2023/10/17 08:54:20;;;;;;;8.45;3.90;;;;;;;;;;5085458;28;20212;-44
2023/10/17 08:56:50;;;;;;;6.53;3.90;;;;;;;;;;5084952;28;20025;-47
2023/10/17 09:05:18;;;;;;;5.95;3.70;;;;;;;;;;5085192;28;20040;-45
2023/10/17 09:07:56;;;;;;;5.63;3.58;;;;;;;;;;5084980;28;20031;-46
2023/10/17 09:10:59;;;;;;;4.82;4.05;;;;;;;;;;5084675;28;20274;-40
2023/10/17 09:15:55;;;;;;;6.88;4.13;;;;;;;;;;5084552;28;20128;-46
2023/10/17 09:18:28;;;;;;;7.10;4.28;;;;;;;;;;5084662;28;20032;-43
2023/10/17 09:20:56;;;;;;;9.30;4.05;;;;;;;;;;5084428;28;20043;-52
2023/10/17 09:23:30;;;;;;;7.82;3.95;;;;;;;;;;5084623;28;20088;-43
2023/10/17 09:26:07;;;;;;;6.50;3.70;;;;;;;;;;5084492;28;20150;-42
2023/10/17 09:28:37;;;;;;;4.55;3.60;;;;;;;;;;5084696;28;20020;-43
2023/10/17 09:31:08;;;;;;;5.35;3.67;;;;;;;;;;5084671;28;20028;-42
2023/10/17 09:33:48;;;;;;;8.95;4.18;;;;;;;;;;5084284;28;20028;-40
2023/10/17 09:36:18;;;;;;;10.52;4.13;;;;;;;;;;5084326;28;20058;-44
2023/10/17 09:38:45;;;;;;;6.85;4.40;;;;;;;;;;5084488;28;20137;-39
2023/10/17 09:41:17;;;;;;;9.70;4.35;;;;;;;;;;5084213;28;20090;-39
2023/10/17 09:43:53;;;;;;;6.03;4.05;;;;;;;;;;5084101;28;20035;-42
2023/10/17 09:46:23;;;;;;;6.55;4.13;;;;;;;;;;5084062;28;20063;-39
2023/10/17 09:48:52;;;;;;;8.45;4.28;;;;;;;;;;5084195;28;20033;-44
2023/10/17 09:51:33;;;;;;;9.07;3.90;;;;;;;;;;5084085;28;20016;-45
2023/10/17 09:54:00;;;;;;;9.15;4.13;;;;;;;;;;5079105;28;20029;-39
2023/10/17 09:56:33;;;;;;;5.95;3.92;;;;;;;;;;5063914;28;20116;-43
2023/10/17 09:59:04;;;;;;;5.70;4.03;;;;;;;;;;5063801;28;20032;-46
2023/10/17 10:01:33;;;;;;;9.50;4.15;;;;;;;;;;5065548;28;20032;-51
2023/10/17 10:04:02;;;;;;;10.02;4.45;;;;;;;;;;5084257;28;20033;-43
2023/10/17 10:06:32;;;;;;;11.30;4.25;;;;;;;;;;5083894;28;20037;-41
2023/10/17 10:09:14;;;;;;;6.20;4.10;;;;;;;;;;5084019;28;20029;-44
2023/10/17 10:11:52;;;;;;;8.02;3.95;;;;;;;;;;5083664;28;20055;-40
2023/10/17 10:14:33;;;;;;;6.97;4.00;;;;;;;;;;5084103;28;20020;-41
2023/10/17 10:17:05;;;;;;;7.20;4.10;;;;;;;;;;5083950;28;20052;-40
2023/10/17 10:19:46;;;;;;;9.55;4.32;;;;;;;;;;5084091;28;20024;-42
2023/10/17 10:22:13;;;;;;;8.23;4.50;;;;;;;;;;5083608;28;20337;-39
2023/10/17 10:24:41;;;;;;;9.80;4.13;;;;;;;;;;5083505;28;20100;-38
2023/10/17 10:27:32;;;;;;;8.70;4.28;;;;;;;;;;5083699;28;20032;-38
2023/10/17 10:30:19;;;;;;;7.63;4.53;;;;;;;;;;5083049;28;20056;-39
2023/10/17 10:32:45;;;;;;;7.20;4.00;;;;;;;;;;5083290;28;20096;-52
2023/10/17 10:35:12;;;;;;;9.20;4.55;;;;;;;;;;5083524;28;20048;-39
2023/10/17 10:37:54;;;;;;;9.25;4.03;;;;;;;;;;5083266;28;20050;-41
2023/10/17 10:40:25;;;;;;;19.45;5.18;;;;;;;;;;5064073;28;20029;-39
2023/10/17 10:42:54;;;;;;;12.48;5.05;;;;;;;;;;5069015;28;20033;-43
2023/10/17 10:45:24;;;;;;;13.40;6.55;;;;;;;;;;5074359;28;20032;-48
2023/10/17 10:48:01;;;;;;;11.88;5.78;;;;;;;;;;5079656;28;20341;-42
2023/10/17 10:50:34;;;;;;;10.13;5.35;;;;;;;;;;5078391;28;20041;-42
2023/10/17 10:53:20;;;;;;;10.80;4.82;;;;;;;;;;5072299;28;20035;-43
2023/10/17 10:55:55;;;;;;;13.48;5.00;;;;;;;;;;5063673;28;20017;-48
2023/10/17 10:58:23;;;;;;;9.13;4.97;;;;;;;;;;5063243;28;20343;-43
2023/10/17 11:00:50;;;;;;;10.30;5.13;;;;;;;;;;5063331;28;20024;-42
2023/10/17 11:03:21;;;;;;;14.57;5.10;;;;;;;;;;5063590;28;20040;-40
2023/10/17 11:06:03;;;;;;;9.90;5.55;;;;;;;;;;5072677;28;20036;-41
2023/10/17 11:08:41;;;;;;;18.35;6.00;;;;;;;;;;5081967;28;20032;-39
2023/10/17 11:11:10;;;;;;;15.50;5.82;;;;;;;;;;5080113;28;20051;-39
2023/10/17 11:13:56;;;;;;;10.20;5.63;;;;;;;;;;5086242;28;20032;-40
2023/10/17 11:16:24;;;;;;;18.88;5.57;;;;;;;;;;5085444;28;20324;-44
2023/10/17 11:18:52;;;;;;;11.82;6.00;;;;;;;;;;5086946;28;20024;-44
2023/10/17 11:21:22;;;;;;;18.58;6.43;;;;;;;;;;5084967;28;20344;-42
2023/10/17 11:23:59;;;;;;;12.90;5.53;;;;;;;;;;5083530;28;20024;-43
2023/10/17 11:26:28;;;;;;;14.02;6.05;;;;;;;;;;5083274;28;20049;-46
2023/10/17 11:28:55;;;;;;;17.02;6.15;;;;;;;;;;5083324;28;20032;-45
2023/10/17 11:31:25;;;;;;;13.98;6.13;;;;;;;;;;5083282;28;20021;-41
2023/10/17 11:33:59;;;;;;;10.32;5.60;;;;;;;;;;5083406;28;20060;-42
2023/10/17 11:36:35;;;;;;;8.98;5.50;;;;;;;;;;5084047;28;20060;-46
2023/10/17 11:39:05;;;;;;;15.35;6.53;;;;;;;;;;5084826;28;20024;-43
2023/10/17 11:41:41;;;;;;;9.95;6.05;;;;;;;;;;5084764;28;20032;-44
2023/10/17 11:44:10;;;;;;;10.60;5.63;;;;;;;;;;5084755;28;20033;-50
2023/10/17 11:46:48;;;;;;;14.35;5.57;;;;;;;;;;5084418;28;20036;-40
2023/10/17 11:49:29;;;;;;;13.73;5.88;;;;;;;;;;5084724;28;20024;-44
2023/10/17 11:52:00;;;;;;;16.75;5.10;;;;;;;;;;5084728;28;20036;-44
2023/10/17 11:54:28;;;;;;;10.65;5.18;;;;;;;;;;5085166;28;20028;-42
2023/10/17 11:56:57;;;;;;;12.60;5.22;;;;;;;;;;5084638;28;20032;-46
2023/10/17 11:59:25;;;;;;;12.50;5.10;;;;;;;;;;5085065;28;20024;-39
2023/10/17 12:01:54;;;;;;;13.45;5.57;;;;;;;;;;5085794;28;20083;-46
2023/10/17 12:04:23;;;;;;;13.48;5.10;;;;;;;;;;5085052;28;20127;-43
2023/10/17 12:06:50;;;;;;;10.52;5.00;;;;;;;;;;5086166;28;20013;-39
2023/10/17 12:09:22;;;;;;;10.45;4.43;;;;;;;;;;5086399;28;20020;-39
2023/10/17 12:11:54;;;;;;;12.02;4.53;;;;;;;;;;5086075;28;20351;-43
2023/10/17 12:14:21;;;;;;;7.70;4.45;;;;;;;;;;5086352;28;20024;-40
2023/10/17 12:16:49;;;;;;;7.35;3.92;;;;;;;;;;5086365;28;20216;-40
2023/10/17 12:19:19;;;;;;;7.07;4.38;;;;;;;;;;5086168;28;20052;-38
2023/10/17 12:21:53;;;;;;;7.85;3.70;;;;;;;;;;5085822;28;20084;-39
2023/10/17 12:24:24;;;;;;;5.40;3.78;;;;;;;;;;5085982;28;20040;-44
2023/10/17 12:26:53;;;;;;;5.47;3.70;;;;;;;;;;5085825;28;20012;-39
2023/10/17 12:29:21;;;;;;;12.45;3.67;;;;;;;;;;5085847;28;20037;-41
2023/10/17 12:31:47;;;;;;;11.00;3.85;;;;;;;;;;5085743;28;20041;-42
2023/10/17 12:34:15;;;;;;;8.05;4.07;;;;;;;;;;5085489;28;20055;-41
2023/10/17 12:36:46;;;;;;;9.25;3.85;;;;;;;;;;5085414;28;20227;-40
2023/10/17 12:39:16;;;;;;;6.35;3.33;;;;;;;;;;5085781;28;20024;-48
2023/10/17 12:41:46;;;;;;;6.75;3.53;;;;;;;;;;5085566;28;20024;-40
2023/10/17 12:44:13;;;;;;;6.88;4.20;;;;;;;;;;5085458;28;20028;-44
2023/10/17 12:46:43;;;;;;;5.93;3.60;;;;;;;;;;5085332;28;20312;-41
2023/10/17 12:49:12;;;;;;;9.35;4.13;;;;;;;;;;5085579;28;20082;-47
2023/10/17 12:51:41;;;;;;;9.07;3.53;;;;;;;;;;5085020;28;20080;-45
2023/10/17 12:54:08;;;;;;;6.25;3.63;;;;;;;;;;5085457;28;20040;-45
2023/10/17 12:56:39;;;;;;;7.78;3.75;;;;;;;;;;5085113;28;20072;-46
2023/10/17 12:59:12;;;;;;;6.85;4.38;;;;;;;;;;5084341;28;20044;-47
2023/10/17 13:01:39;;;;;;;8.23;3.97;;;;;;;;;;5084993;28;20076;-45
2023/10/17 13:04:11;;;;;;;6.32;4.10;;;;;;;;;;5084898;28;20033;-53
2023/10/17 13:06:38;;;;;;;10.73;4.28;;;;;;;;;;5085039;28;20012;-51
2023/10/17 13:09:05;;;;;;;6.90;3.92;;;;;;;;;;5085095;28;20039;-45
2023/10/17 13:11:32;;;;;;;9.07;4.30;;;;;;;;;;5084684;28;20024;-51
2023/10/17 13:14:02;;;;;;;6.43;4.05;;;;;;;;;;5085143;28;20282;-46
2023/10/17 13:16:29;;;;;;;10.80;4.10;;;;;;;;;;5084862;28;20016;-48
2023/10/17 13:19:06;;;;;;;7.68;3.95;;;;;;;;;;5084728;28;20032;-49
2023/10/17 13:21:36;;;;;;;10.65;3.85;;;;;;;;;;5084711;28;20016;-51
2023/10/17 13:24:05;;;;;;;10.98;3.97;;;;;;;;;;5084562;28;20025;-49
2023/10/17 13:26:32;;;;;;;10.65;4.55;;;;;;;;;;5084631;28;20075;-53
2023/10/17 13:28:58;;;;;;;8.23;4.20;;;;;;;;;;5084800;28;20024;-54
2023/10/17 13:31:25;;;;;;;8.63;4.07;;;;;;;;;;5084247;28;20024;-54
2023/10/17 13:33:55;;;;;;;6.80;3.80;;;;;;;;;;5083882;28;20098;-55
2023/10/17 13:36:26;;;;;;;9.35;4.07;;;;;;;;;;5084466;28;20190;-53
2023/10/17 13:38:52;;;;;;;9.88;4.13;;;;;;;;;;5084328;28;20103;-47
2023/10/17 13:41:20;;;;;;;9.77;4.22;;;;;;;;;;5084226;28;20020;-46
2023/10/17 13:43:47;;;;;;;11.30;3.95;;;;;;;;;;5083006;28;20067;-42
2023/10/17 13:46:18;;;;;;;7.45;4.28;;;;;;;;;;5083958;28;20035;-41
2023/10/17 13:48:51;;;;;;;9.48;3.83;;;;;;;;;;5084348;28;20200;-41
2023/10/17 13:51:18;;;;;;;8.05;3.45;;;;;;;;;;5084168;28;20016;-40
2023/10/17 13:53:50;;;;;;;5.22;3.50;;;;;;;;;;5084086;28;20095;-53
2023/10/17 13:56:19;;;;;;;5.97;3.73;;;;;;;;;;5084067;28;20020;-47
2023/10/17 13:58:53;;;;;;;7.80;3.83;;;;;;;;;;5084152;28;20181;-43
2023/10/17 14:01:32;;;;;;;5.13;3.65;;;;;;;;;;5084343;28;20228;-42
2023/10/17 14:03:59;;;;;;;4.10;3.70;;;;;;;;;;5084263;28;20040;-42
2023/10/17 14:06:38;;;;;;;4.13;3.63;;;;;;;;;;5083867;28;20029;-42
2023/10/17 14:09:07;;;;;;;5.25;3.60;;;;;;;;;;5084534;28;20029;-43
2023/10/17 14:11:34;;;;;;;9.15;3.63;;;;;;;;;;5083787;28;20056;-41
2023/10/17 14:14:01;;;;;;;4.95;3.28;;;;;;;;;;5084128;28;20056;-44
2023/10/17 14:16:27;;;;;;;4.82;3.60;;;;;;;;;;5083957;28;20017;-48
2023/10/17 14:20:05;;;;;;;4.00;3.58;;;;;;;;;;5083929;28;20062;-46
2023/10/17 14:24:49;;;;;;;4.25;3.33;;;;;;;;;;5083911;28;20044;-49
2023/10/17 14:27:20;;;;;;;5.45;3.53;;;;;;;;;;5083490;28;20073;-42
2023/10/17 14:29:48;;;;;;;4.70;3.53;;;;;;;;;;5084207;28;20032;-39
2023/10/17 14:32:15;;;;;;;5.45;3.42;;;;;;;;;;5083806;28;20028;-39
2023/10/17 14:34:42;;;;;;;4.93;3.10;;;;;;;;;;5083480;28;20059;-39
2023/10/17 14:37:08;;;;;;;6.85;3.40;;;;;;;;;;5083675;28;20032;-41
2023/10/17 14:39:36;;;;;;;5.63;3.30;;;;;;;;;;5083989;28;20101;-44
2023/10/17 14:42:04;;;;;;;4.90;3.22;;;;;;;;;;5083471;28;20028;-40
2023/10/17 14:44:32;;;;;;;4.47;3.40;;;;;;;;;;5083549;28;20104;-42
2023/10/17 14:46:59;;;;;;;6.10;3.40;;;;;;;;;;5087261;28;20021;-44
2023/10/17 14:49:26;;;;;;;4.88;3.92;;;;;;;;;;5087786;28;20028;-45
2023/10/17 14:51:53;;;;;;;4.15;3.55;;;;;;;;;;5087592;28;20075;-43
2023/10/17 14:54:21;;;;;;;9.15;3.78;;;;;;;;;;5087831;28;20048;-47
2023/10/17 14:56:48;;;;;;;8.73;3.78;;;;;;;;;;5087290;28;20208;-42
2023/10/17 14:59:15;;;;;;;7.25;3.97;;;;;;;;;;5087678;28;20036;-42
2023/10/17 15:01:43;;;;;;;11.32;4.35;;;;;;;;;;5087343;28;20044;-49
2023/10/17 15:04:11;;;;;;;8.25;4.18;;;;;;;;;;5087221;28;20028;-47
2023/10/17 15:06:38;;;;;;;5.30;3.53;;;;;;;;;;5087170;28;20029;-40
2023/10/17 15:09:06;;;;;;;11.95;3.80;;;;;;;;;;5087634;28;20024;-42
2023/10/17 15:11:33;;;;;;;15.00;4.57;;;;;;;;;;5086972;28;20021;-38
2023/10/17 15:14:04;;;;;;;10.25;4.45;;;;;;;;;;5087234;28;20308;-44
2023/10/17 15:16:31;;;;;;;13.40;4.50;;;;;;;;;;5087292;28;20020;-39
2023/10/17 15:18:59;;;;;;;13.35;4.20;;;;;;;;;;5087178;28;20211;-42
2023/10/17 15:21:26;;;;;;;11.32;4.85;;;;;;;;;;5086994;28;20051;-42
2023/10/17 15:23:53;;;;;;;17.02;5.28;;;;;;;;;;5087100;28;20204;-46
2023/10/17 15:26:21;;;;;;;18.77;5.25;;;;;;;;;;5086638;28;20027;-46
2023/10/17 15:28:48;;;;;;;27.30;5.10;;;;;;;;;;5086933;28;20304;-46
2023/10/17 15:31:15;;;;;;;18.75;5.22;;;;;;;;;;5086848;28;20043;-44
2023/10/17 15:33:42;;;;;;;25.98;5.63;;;;;;;;;;5086579;28;20228;-46
2023/10/17 15:36:13;;;;;;;32.92;5.75;;;;;;;;;;5086579;28;20059;-49
2023/10/17 15:38:43;;;;;;;31.88;6.15;;;;;;;;;;5086678;28;20315;-52
2023/10/17 15:41:21;;;;;;;30.88;6.28;;;;;;;;;;5086739;28;20059;-49
2023/10/17 15:43:47;;;;;;;31.83;5.97;;;;;;;;;;5086671;28;20081;-53
2023/10/17 15:46:14;;;;;;;50.75;7.00;;;;;;;;;;5086334;28;20315;-54
2023/10/17 15:48:44;;;;;;;40.92;6.70;;;;;;;;;;5086611;28;20033;-56
2023/10/17 15:51:18;;;;;;;47.17;7.57;;;;;;;;;;5086444;28;20186;-56
2023/10/17 15:53:45;;;;;;;51.03;7.80;;;;;;;;;;5086423;28;20096;-64
2023/10/17 15:56:12;;;;;;;55.50;8.35;;;;;;;;;;5085783;28;20350;-58
2023/10/17 15:58:39;;;;;;;44.63;7.45;;;;;;;;;;5086532;28;20028;-56
2023/10/17 16:01:05;;;;;;;54.05;7.70;;;;;;;;;;5086190;28;20028;-45
2023/10/17 16:03:32;;;;;;;58.95;8.05;;;;;;;;;;5086430;28;20372;-41
2023/10/17 16:05:59;;;;;;;62.45;8.55;;;;;;;;;;5086152;28;20258;-45
2023/10/17 16:08:26;;;;;;;67.20;8.63;;;;;;;;;;5086158;28;20090;-45
2023/10/17 16:10:53;;;;;;;71.57;8.50;;;;;;;;;;5085112;28;20028;-39
2023/10/17 16:13:21;;;;;;;57.58;9.63;;;;;;;;;;5086000;28;20281;-42
2023/10/17 16:15:48;;;;;;;66.05;9.50;;;;;;;;;;5085920;28;20028;-43
2023/10/17 16:18:15;;;;;;;61.55;8.18;;;;;;;;;;5085863;28;20040;-43
2023/10/17 16:20:42;;;;;;;61.53;8.27;;;;;;;;;;5085843;28;20088;-42
2023/10/17 16:23:09;;;;;;;70.05;8.55;;;;;;;;;;5085778;28;20024;-41
2023/10/17 16:25:39;;;;;;;91.32;10.38;;;;;;;;;;5085629;28;20031;-55
2023/10/17 16:28:06;;;;;;;98.20;10.95;;;;;;;;;;5085737;28;20317;-43
2023/10/17 16:30:33;;;;;;;90.05;10.50;;;;;;;;;;5085605;28;20020;-42
2023/10/17 16:33:00;;;;;;;81.35;10.25;;;;;;;;;;5085555;28;20020;-40
2023/10/17 16:35:27;;;;;;;86.70;9.90;;;;;;;;;;5085457;28;20067;-44
2023/10/17 16:37:54;;;;;;;87.88;10.85;;;;;;;;;;5085382;28;20032;-45
2023/10/17 16:40:22;;;;;;;80.07;8.75;;;;;;;;;;5085714;28;20052;-39
2023/10/17 16:42:49;;;;;;;65.00;8.27;;;;;;;;;;5085595;28;20043;-44
2023/10/17 16:45:16;;;;;;;60.42;8.30;;;;;;;;;;5085152;28;20028;-41
2023/10/17 16:47:43;;;;;;;59.83;8.18;;;;;;;;;;5085305;28;20051;-42
2023/10/17 16:50:12;;;;;;;47.92;7.50;;;;;;;;;;5085740;28;20056;-44
2023/10/17 16:52:39;;;;;;;47.92;6.70;;;;;;;;;;5085076;28;20024;-39
2023/10/17 16:55:06;;;;;;;47.67;7.60;;;;;;;;;;5085635;28;20304;-42
2023/10/17 16:57:32;;;;;;;49.17;7.78;;;;;;;;;;5085163;28;20016;-41
2023/10/17 17:00:00;;;;;;;35.30;6.57;;;;;;;;;;5085640;28;20195;-40
2023/10/17 17:02:26;;;;;;;37.22;6.63;;;;;;;;;;5084953;28;20032;-40
2023/10/17 17:04:53;;;;;;;34.60;6.00;;;;;;;;;;5085383;28;20220;-43
2023/10/17 17:07:22;;;;;;;27.13;5.75;;;;;;;;;;5084548;28;20019;-42
2023/10/17 17:09:49;;;;;;;27.95;6.25;;;;;;;;;;5084809;28;20040;-45
2023/10/17 17:12:15;;;;;;;13.45;5.15;;;;;;;;;;5084803;28;20316;-39
2023/10/17 17:14:43;;;;;;;22.60;5.68;;;;;;;;;;5085097;28;20106;-41
2023/10/17 17:17:10;;;;;;;50.72;6.90;;;;;;;;;;5084989;28;20259;-41
2023/10/17 17:19:36;;;;;;;51.58;6.72;;;;;;;;;;5085035;28;20027;-49
2023/10/17 17:22:03;;;;;;;52.45;6.88;;;;;;;;;;5084570;28;20047;-40
2023/10/17 17:24:30;;;;;;;31.98;5.47;;;;;;;;;;5084803;28;20040;-46
2023/10/17 17:26:56;;;;;;;30.55;5.35;;;;;;;;;;5084422;28;20020;-43